Rancho Cucamonga, California
Current Conditions -  °F | °C
As of 7:53 AM on Thursday 18 Dec 2014 (Local Time) from KONT Reporting Station
Few Clouds Few Clouds  
Wind Chill: 50°   Ceiling: Unl
Heat Index: 50°   Visibility: 10mi
Dew Point: 42°   Wind: 5mph
Humidity: 74%   Direction: 90°E
Pressure: 30.17"   Gusts: NA
Location:  34.1°N, 117.57°W
Report Text: KONT 181553Z 09004KT 10SM FEW042 FEW080 10/06 A3017 RMK AO2 SLP215 T01000056
Loading
Personal Weather Stations






























Interactive Weather Map New forecast layout! Learn more

10-Day Weather Forecast

Advertisements
Track Severe Weather on mobile